Aérodrome :
LOGIN :

S'inscrire | Disclaimer

   EN    FR    IT 

 










Légende :    VFR   VFR Marginal   IFR   IFR Intensif   IFR Très Intensif
Visi : 
Plafond : 
>= 8 km
>= 3000ft
5 à 8 km
1000 à 3000 ft
1500m à 5 km
500 à 1000 ft
800 à 1500m
200 à 500 ft
< 800m
< 200 ft
Symboles :   Orages  Brouillard  Fortes neiges  Fortes précipitations  Vent > 20 kt
SIGMETs :   Divers  Orages  Givrage  Turbulence  Onde Orograph.  Cendres Volcan.






- Altitude de l'aérodrome : 65 ft
- Code IATA : PIK


EGPK - Glasgow Prestwick

DERNIER METAR :
  • 081250Z 18009KT 9999 -RADZ SCT018 BKN020 09/08 Q0993

METARs EXPIRÉS :
  • 081220Z 18008KT 8000 -RADZ SCT018 BKN020 09/08 Q0993
  • 081150Z 15005KT 9000 -DZ FEW011 BKN018 09/08 Q0993
  • 081120Z 15006KT 7000 -RA FEW012 BKN018 09/08 Q0993
  • 081050Z 16006KT 8000 -RA FEW012 BKN018 09/08 Q0993
  • 081020Z 16007KT 8000 -RA FEW012 BKN018 09/08 Q0993
  • 080950Z 14010KT 8000 -RA FEW020 BKN025 09/07 Q0993
  • 080920Z 14010KT 9999 -RA FEW023 BKN036 09/07 Q0993
  • 080850Z 13009KT 9999 FEW023 BKN036 08/07 Q0993
  • 080820Z 12009KT 9999 -RA FEW023 BKN036 08/07 Q0993

TAF TAF EGPK
Valide du 08 à 12h jusqu'au 09 à 12h UTC


081102Z 0812/0912 14009KT 9999 FEW020 SCT035
TEMPO 0812/0822 6000 RA SHRA BKN012
PROB30
TEMPO 0812/0822 BKN009
BECMG 0821/0824 22012KT
PROB30
TEMPO 0822/0906 23018G28KT 3000 +RA RADZ BKN004
PROB30
TEMPO 0906/0912 8000 -RA BKN012
BECMG 0909/0912 09010KT



MET'MAP, la Météo Aéronautique d'un coup d'oeil ! - Copyright ORBIFLY Décembre 2007 - Disclaimer

ORBIFLY MET'MAP TEAM :

Programmation & Développement : Alexandra Zaïnal
Sur une idée originale de : Baudouin d'Aumeries
Soutien technique & logistique : Manuel Goepfert
Assistance : Marc-Olivier Méhu




SOURCES & CREDITS :

   NOAA